Terminal Aerodrome Forecast
Issued by NWS

Current Version | Previous Version | Text Only | Print | Product List | Glossary On
Versions: 1 2 3 4 5 6 7 8 9 10 11 12 13 14
000 FTUS41 KBTV 242321 TAFMPV TAF KMPV 242321Z 2500/2524 32009KT P6SM OVC035 FM250700 31012KT P6SM VCSH OVC025 FM250900 32010KT 5SM -SNRA BKN015 OVC025 FM251400 31012G18KT P6SM OVC040=

USA.gov is the U.S. government's official web portal to all federal, state and local government web resources and services.